Time;durP1;ratioP1;P1;durP2;ratioP2;P2;SDS_P1;SDS_P2;PMS_P1;PMS_P2;Temp;Humidity;BMP_temperature;BMP_pressure;BME280_temperature;BME280_humidity;BME280_pressure;Samples;Min_cycle;Max_cycle;Signal;HPM_P1;HPM_P2
2022/09/12 00:01:18;;;;;;;2.05;1.95;;;13.50;99.90;;;;;;5008157;28;20415;-74
2022/09/12 00:03:44;;;;;;;2.47;2.35;;;13.50;99.90;;;;;;5007034;28;20026;-73
2022/09/12 00:06:15;;;;;;;1.37;1.27;;;13.50;99.90;;;;;;5003933;28;20052;-73
2022/09/12 00:08:41;;;;;;;1.75;1.38;;;13.60;99.90;;;;;;4969419;28;20041;-74
2022/09/12 00:11:08;;;;;;;4.70;3.47;;;13.50;99.90;;;;;;4969530;28;20030;-74
2022/09/12 00:13:35;;;;;;;1.35;1.25;;;13.60;99.90;;;;;;4969225;28;20038;-74
2022/09/12 00:16:01;;;;;;;0.85;0.85;;;13.70;99.90;;;;;;4995816;28;20450;-73
2022/09/12 00:18:26;;;;;;;2.53;2.33;;;13.60;99.90;;;;;;5008300;28;20052;-74
2022/09/12 00:20:52;;;;;;;1.73;1.60;;;13.70;99.90;;;;;;5008315;28;20389;-74
2022/09/12 00:23:18;;;;;;;28.83;2.43;;;13.70;99.90;;;;;;5006819;28;20030;-74
2022/09/12 00:25:46;;;;;;;1.17;1.17;;;13.70;99.90;;;;;;5000169;28;20031;-75
2022/09/12 00:28:13;;;;;;;2.53;1.73;;;13.60;99.90;;;;;;4987393;28;20046;-74
2022/09/12 00:30:42;;;;;;;1.85;1.73;;;13.70;99.90;;;;;;4996432;28;20014;-75
2022/09/12 00:33:08;;;;;;;2.08;1.35;;;14.70;99.90;;;;;;5008193;28;20033;-75
2022/09/12 00:35:39;;;;;;;1.58;1.48;;;14.10;99.90;;;;;;5004577;28;20116;-75
2022/09/12 00:38:05;;;;;;;1.42;1.15;;;13.60;99.90;;;;;;4994142;28;20073;-75
2022/09/12 00:40:30;;;;;;;6.77;2.40;;;13.70;99.90;;;;;;5006628;28;20076;-75
2022/09/12 00:42:56;;;;;;;1.83;1.73;;;13.80;99.90;;;;;;5006732;28;20561;-75
2022/09/12 00:45:28;;;;;;;1.50;1.40;;;13.70;99.90;;;;;;5007060;28;20103;-74
2022/09/12 00:47:55;;;;;;;0.65;0.65;;;13.70;99.90;;;;;;5007592;28;20053;-75
2022/09/12 00:50:21;;;;;;;4.60;2.88;;;13.70;99.90;;;;;;5006310;28;20022;-75
2022/09/12 00:52:55;;;;;;;1.73;1.63;;;13.70;99.90;;;;;;5006470;28;20086;-75
2022/09/12 00:55:23;;;;;;;2.00;1.90;;;13.70;99.90;;;;;;4999234;28;20026;-74
2022/09/12 00:57:53;;;;;;;0.98;0.90;;;13.80;99.90;;;;;;4988470;28;20417;-75
2022/09/12 01:00:22;;;;;;;3.90;1.85;;;13.70;99.90;;;;;;4987718;28;20041;-74
2022/09/12 01:02:55;;;;;;;8.68;4.13;;;13.80;99.90;;;;;;4987893;28;20390;-74
2022/09/12 01:05:22;;;;;;;0.90;0.90;;;13.80;99.90;;;;;;5004662;28;20381;-75
2022/09/12 01:07:49;;;;;;;1.40;1.30;;;13.80;99.90;;;;;;5007861;28;20590;-75
2022/09/12 01:10:16;;;;;;;2.60;1.70;;;13.80;99.90;;;;;;5004618;28;20515;-75
2022/09/12 01:12:43;;;;;;;1.27;1.20;;;13.80;99.90;;;;;;5005430;28;20451;-75
2022/09/12 01:15:09;;;;;;;0.68;0.68;;;13.80;99.90;;;;;;5006731;28;20183;-75
2022/09/12 01:17:58;;;;;;;1.73;1.60;;;13.70;99.90;;;;;;5007566;28;20045;-75
2022/09/12 01:20:27;;;;;;;2.65;1.85;;;13.70;99.90;;;;;;4994424;28;20046;-75
2022/09/12 01:23:23;;;;;;;1.13;1.02;;;13.80;99.90;;;;;;4987516;28;20042;-75
2022/09/12 01:26:21;;;;;;;3.17;2.67;;;12.80;99.90;;;;;;4987551;28;20034;-75
2022/09/12 01:29:13;;;;;;;1.58;1.45;;;13.80;99.90;;;;;;4987291;28;20235;-75
2022/09/12 01:31:56;;;;;;;1.50;1.40;;;13.80;99.90;;;;;;4985776;28;20250;-75
2022/09/12 01:34:25;;;;;;;0.68;0.68;;;13.70;99.90;;;;;;4987783;28;20105;-74
2022/09/12 01:37:07;;;;;;;0.82;0.82;;;13.70;99.90;;;;;;4987726;28;20366;-75
2022/09/12 01:39:56;;;;;;;0.50;0.50;;;13.60;99.90;;;;;;4998150;28;20058;-74
2022/09/12 01:42:55;;;;;;;1.20;1.10;;;13.70;99.90;;;;;;5007589;28;20105;-74
2022/09/12 01:45:45;;;;;;;1.08;1.08;;;13.70;99.90;;;;;;4986799;28;20050;-74
2022/09/12 01:48:28;;;;;;;3.83;1.80;;;13.70;99.90;;;;;;4987382;28;20432;-74
2022/09/12 01:51:02;;;;;;;2.35;2.08;;;13.70;99.90;;;;;;4986003;28;20528;-74
2022/09/12 01:53:37;;;;;;;1.48;1.38;;;13.70;99.90;;;;;;4985929;28;20030;-74
2022/09/12 01:56:12;;;;;;;0.40;0.40;;;13.70;99.90;;;;;;4986136;28;20038;-74
2022/09/12 01:58:46;;;;;;;1.00;1.00;;;13.60;99.90;;;;;;4988075;28;20157;-75
2022/09/12 02:01:29;;;;;;;0.82;0.82;;;13.60;99.90;;;;;;4986865;28;20034;-74
2022/09/12 02:04:01;;;;;;;2.20;1.75;;;13.50;99.90;;;;;;4987329;28;20027;-74
2022/09/12 02:06:36;;;;;;;0.77;0.77;;;13.50;99.90;;;;;;4987520;28;20038;-74
2022/09/12 02:09:09;;;;;;;1.25;1.15;;;13.50;99.90;;;;;;4997469;28;20038;-75
2022/09/12 02:11:40;;;;;;;1.25;1.15;;;13.50;99.90;;;;;;5007003;28;20457;-74
2022/09/12 02:14:11;;;;;;;0.45;0.45;;;13.40;99.90;;;;;;4992945;28;20385;-74
2022/09/12 02:16:45;;;;;;;0.30;0.30;;;13.40;99.90;;;;;;4987450;28;20094;-74
2022/09/12 02:19:17;;;;;;;0.47;0.47;;;13.40;99.90;;;;;;4995965;28;20037;-74
2022/09/12 02:21:53;;;;;;;0.65;0.65;;;13.40;99.90;;;;;;5006883;28;20030;-73
2022/09/12 02:24:21;;;;;;;0.60;0.60;;;15.10;99.90;;;;;;5007963;28;20043;-73
2022/09/12 02:26:51;;;;;;;1.00;0.85;;;13.30;99.90;;;;;;5008705;28;20072;-73
2022/09/12 02:29:17;;;;;;;0.32;0.32;;;13.40;99.90;;;;;;5009950;28;20132;-74
2022/09/12 02:31:58;;;;;;;0.40;0.40;;;13.30;99.90;;;;;;5010097;28;20097;-74
2022/09/12 02:34:48;;;;;;;0.20;0.20;;;13.30;99.90;;;;;;5010318;28;20374;-74
2022/09/12 02:37:19;;;;;;;0.30;0.30;;;13.30;99.90;;;;;;5007986;28;20061;-74
2022/09/12 02:39:45;;;;;;;0.30;0.30;;;13.30;99.90;;;;;;4970891;28;20031;-74
2022/09/12 02:42:12;;;;;;;1.52;1.42;;;13.30;99.90;;;;;;4971348;28;20380;-75
2022/09/12 02:44:38;;;;;;;0.77;0.75;;;13.40;99.90;;;;;;5009488;28;20049;-74
2022/09/12 02:47:32;;;;;;;0.50;0.50;;;13.30;99.90;;;;;;5009924;28;20102;-74
2022/09/12 02:49:59;;;;;;;0.30;0.30;;;13.30;99.90;;;;;;4990339;28;20037;-75
2022/09/12 02:52:26;;;;;;;0.90;0.77;;;13.20;99.90;;;;;;4988655;28;20546;-74
2022/09/12 02:54:54;;;;;;;0.32;0.32;;;13.20;99.90;;;;;;4990019;28;20522;-74
2022/09/12 02:57:20;;;;;;;0.47;0.47;;;13.10;99.90;;;;;;4998129;28;20062;-74
2022/09/12 02:59:48;;;;;;;0.35;0.35;;;13.20;99.90;;;;;;5008194;28;20034;-74
2022/09/12 03:02:39;;;;;;;0.85;0.70;;;13.20;99.90;;;;;;5009802;28;20042;-74
2022/09/12 03:05:26;;;;;;;0.30;0.30;;;13.20;99.90;;;;;;5009470;28;20429;-74
2022/09/12 03:08:18;;;;;;;0.30;0.30;;;13.20;99.90;;;;;;5001023;28;20117;-74
2022/09/12 03:11:06;;;;;;;0.57;0.57;;;13.20;99.90;;;;;;4989640;28;20098;-74
2022/09/12 03:13:34;;;;;;;0.57;0.57;;;13.10;99.90;;;;;;5005243;28;20481;-74
2022/09/12 03:16:13;;;;;;;0.43;0.43;;;13.10;99.90;;;;;;5009373;28;20415;-74
2022/09/12 03:18:49;;;;;;;0.40;0.40;;;13.10;99.90;;;;;;5008834;28;20080;-74
2022/09/12 03:21:50;;;;;;;1.13;0.68;;;13.10;99.90;;;;;;5009565;28;20030;-74
2022/09/12 03:24:28;;;;;;;0.43;0.43;;;13.10;99.90;;;;;;5007901;28;20117;-74
2022/09/12 03:26:58;;;;;;;0.20;0.20;;;13.10;99.90;;;;;;5000958;28;20478;-74
2022/09/12 03:29:25;;;;;;;0.22;0.22;;;13.10;99.90;;;;;;4989718;28;20386;-74
2022/09/12 03:31:55;;;;;;;2.13;1.98;;;13.10;99.90;;;;;;4989904;28;20022;-74
2022/09/12 03:34:22;;;;;;;0.25;0.25;;;13.10;99.90;;;;;;4989088;28;20034;-74
2022/09/12 03:36:48;;;;;;;0.50;0.50;;;13.10;99.90;;;;;;4993265;28;20079;-73
2022/09/12 03:39:14;;;;;;;0.30;0.30;;;13.00;99.90;;;;;;5008881;28;20477;-73
2022/09/12 03:41:40;;;;;;;0.63;0.63;;;13.00;99.90;;;;;;5004126;28;20428;-74
2022/09/12 03:44:06;;;;;;;0.67;0.67;;;13.00;99.90;;;;;;4989063;28;20055;-73
2022/09/12 03:46:31;;;;;;;0.40;0.40;;;13.00;99.90;;;;;;4989467;28;20452;-73
2022/09/12 03:48:57;;;;;;;0.30;0.30;;;13.00;99.90;;;;;;5007872;28;20065;-73
2022/09/12 03:51:23;;;;;;;0.40;0.40;;;13.00;99.90;;;;;;5008931;28;20030;-73
2022/09/12 03:53:48;;;;;;;0.50;0.50;;;13.00;99.90;;;;;;5008852;28;20030;-74
2022/09/12 03:56:16;;;;;;;0.40;0.40;;;13.00;99.90;;;;;;5008063;28;20078;-74
2022/09/12 03:58:42;;;;;;;0.30;0.30;;;12.90;99.90;;;;;;5008878;28;20057;-74
2022/09/12 04:01:11;;;;;;;0.40;0.40;;;13.00;99.90;;;;;;5009084;28;20524;-73
2022/09/12 04:03:40;;;;;;;0.22;0.22;;;12.90;99.90;;;;;;5007461;28;20034;-74
2022/09/12 04:06:08;;;;;;;0.32;0.32;;;12.80;99.90;;;;;;5005326;28;20030;-74
2022/09/12 04:08:35;;;;;;;0.45;0.45;;;13.30;99.90;;;;;;4990149;28;20031;-74
2022/09/12 04:11:04;;;;;;;0.30;0.30;;;12.80;99.90;;;;;;4992298;28;20078;-73
2022/09/12 04:13:31;;;;;;;0.30;0.30;;;12.60;99.90;;;;;;5006829;28;20178;-74
2022/09/12 04:15:58;;;;;;;0.30;0.30;;;12.40;99.90;;;;;;5008292;28;20026;-73
2022/09/12 04:18:24;;;;;;;0.30;0.30;;;12.20;99.90;;;;;;4989951;28;20049;-73
2022/09/12 04:20:49;;;;;;;0.30;0.30;;;12.10;99.90;;;;;;4987703;28;20381;-74
2022/09/12 04:23:15;;;;;;;0.43;0.43;;;11.90;99.90;;;;;;4988841;28;20706;-73
2022/09/12 04:25:40;;;;;;;0.30;0.30;;;11.80;99.90;;;;;;4989045;28;20026;-74
2022/09/12 04:28:06;;;;;;;0.40;0.40;;;12.20;99.90;;;;;;4987409;28;20065;-74
2022/09/12 04:30:33;;;;;;;0.30;0.30;;;11.70;99.90;;;;;;4987128;28;20052;-74
2022/09/12 04:32:59;;;;;;;;;;;11.70;99.90;;;;;;4988867;28;20091;-74
2022/09/12 04:35:24;;;;;;;0.30;0.30;;;11.60;99.90;;;;;;4988903;28;19910;-73
2022/09/12 04:37:50;;;;;;;0.57;0.57;;;11.60;99.90;;;;;;5007998;28;20045;-74
2022/09/12 04:40:15;;;;;;;0.30;0.30;;;11.50;99.90;;;;;;5006954;28;20044;-74
2022/09/12 04:42:41;;;;;;;0.30;0.30;;;11.50;99.90;;;;;;4994075;28;20037;-74
2022/09/12 04:45:07;;;;;;;0.40;0.40;;;11.50;99.90;;;;;;5006214;28;20062;-74
2022/09/12 04:47:32;;;;;;;0.40;0.40;;;11.50;99.90;;;;;;5007307;28;20112;-74
2022/09/12 04:49:58;;;;;;;0.30;0.30;;;11.50;99.90;;;;;;5007843;28;20347;-74
2022/09/12 04:52:24;;;;;;;0.50;0.50;;;11.50;99.90;;;;;;4993576;28;20519;-74
2022/09/12 04:54:49;;;;;;;0.30;0.30;;;11.50;99.90;;;;;;4988319;28;20838;-74
2022/09/12 04:57:15;;;;;;;0.40;0.40;;;11.50;99.90;;;;;;5002401;28;20030;-74
2022/09/12 04:59:41;;;;;;;0.77;0.77;;;11.50;99.90;;;;;;5007898;28;20386;-74
2022/09/12 05:02:07;;;;;;;0.83;0.83;;;11.50;99.90;;;;;;5007933;28;20049;-75
2022/09/12 05:04:32;;;;;;;0.33;0.33;;;11.50;99.90;;;;;;4996610;28;20026;-73
2022/09/12 05:06:58;;;;;;;0.30;0.30;;;11.50;99.90;;;;;;4987955;28;20346;-74
2022/09/12 05:09:24;;;;;;;0.38;0.38;;;11.50;99.90;;;;;;4988208;28;20051;-74
2022/09/12 05:11:50;;;;;;;0.40;0.40;;;11.50;99.90;;;;;;4997337;28;20236;-73
2022/09/12 05:14:15;;;;;;;0.70;0.70;;;11.60;99.90;;;;;;5007566;28;20033;-72
2022/09/12 05:16:41;;;;;;;1.03;0.93;;;11.60;99.90;;;;;;5007674;28;20026;-74
2022/09/12 05:19:09;;;;;;;0.40;0.40;;;11.60;99.90;;;;;;5007636;28;20030;-74
2022/09/12 05:21:35;;;;;;;0.55;0.50;;;11.60;99.90;;;;;;5007452;28;20038;-74
2022/09/12 05:24:00;;;;;;;0.30;0.30;;;11.60;99.90;;;;;;5007307;28;20038;-74
2022/09/12 05:26:26;;;;;;;0.30;0.30;;;11.70;99.90;;;;;;5005711;28;20034;-74
2022/09/12 05:28:52;;;;;;;0.67;0.67;;;11.70;99.90;;;;;;5005589;28;20181;-74
2022/09/12 05:31:21;;;;;;;0.57;0.57;;;11.70;99.90;;;;;;5007283;28;20052;-74
2022/09/12 05:33:48;;;;;;;0.30;0.30;;;11.80;99.90;;;;;;5007612;28;20090;-74
2022/09/12 05:36:16;;;;;;;0.30;0.30;;;11.70;99.90;;;;;;4973321;28;20030;-73
2022/09/12 05:38:43;;;;;;;0.30;0.30;;;11.70;99.90;;;;;;4968150;28;20220;-74
2022/09/12 05:41:20;;;;;;;0.32;0.32;;;11.70;99.90;;;;;;4968654;28;20338;-74
2022/09/12 05:43:50;;;;;;;0.30;0.30;;;11.70;99.90;;;;;;4968157;28;20077;-73
2022/09/12 05:46:18;;;;;;;0.35;0.35;;;11.70;99.90;;;;;;4966876;28;20031;-72
2022/09/12 05:48:45;;;;;;;1.13;1.10;;;11.80;99.90;;;;;;4968146;28;20043;-73
2022/09/12 05:51:18;;;;;;;0.82;0.82;;;11.80;99.90;;;;;;4989009;28;20037;-73
2022/09/12 05:53:46;;;;;;;0.30;0.30;;;11.90;99.90;;;;;;5005355;28;20030;-74
2022/09/12 05:56:14;;;;;;;0.30;0.30;;;11.90;99.90;;;;;;5007101;28;20029;-74
2022/09/12 05:58:43;;;;;;;0.30;0.30;;;12.00;99.90;;;;;;5006143;28;20095;-74
2022/09/12 06:01:18;;;;;;;0.30;0.30;;;12.00;99.90;;;;;;5008859;28;20820;-74
2022/09/12 06:03:47;;;;;;;0.38;0.38;;;12.10;99.90;;;;;;5010194;28;20034;-73
2022/09/12 06:06:15;;;;;;;0.45;0.45;;;12.10;99.90;;;;;;5001695;28;20041;-73
2022/09/12 06:08:42;;;;;;;0.30;0.30;;;12.10;99.90;;;;;;4990915;28;20370;-74
2022/09/12 06:11:11;;;;;;;0.30;0.30;;;12.10;99.90;;;;;;4990779;28;20057;-74
2022/09/12 06:13:39;;;;;;;0.50;0.50;;;12.10;99.90;;;;;;5006372;28;20033;-74
2022/09/12 06:16:07;;;;;;;0.40;0.40;;;12.10;99.90;;;;;;5010405;28;20030;-73
2022/09/12 06:18:34;;;;;;;0.30;0.30;;;12.20;99.90;;;;;;5008966;28;20147;-73
2022/09/12 06:21:04;;;;;;;0.30;0.30;;;12.20;99.90;;;;;;5005320;28;20078;-74
2022/09/12 06:23:30;;;;;;;0.40;0.40;;;12.20;99.90;;;;;;4990403;28;20042;-74
2022/09/12 06:25:56;;;;;;;0.30;0.30;;;12.10;99.90;;;;;;4990586;28;20034;-74
2022/09/12 06:28:21;;;;;;;0.30;0.30;;;12.10;99.90;;;;;;4990758;28;20042;-73
2022/09/12 06:30:47;;;;;;;0.40;0.40;;;12.10;99.90;;;;;;4990375;28;20470;-73
2022/09/12 06:33:14;;;;;;;0.30;0.30;;;12.20;99.90;;;;;;4990635;28;20060;-74
2022/09/12 06:35:39;;;;;;;0.70;0.70;;;12.10;99.90;;;;;;4988893;28;20156;-74
2022/09/12 06:38:05;;;;;;;0.47;0.47;;;12.30;99.90;;;;;;5009763;28;20644;-74
2022/09/12 06:40:32;;;;;;;0.40;0.40;;;12.30;99.90;;;;;;5009774;28;20025;-75
2022/09/12 06:42:57;;;;;;;0.35;0.35;;;12.40;99.90;;;;;;5008388;28;20163;-74
2022/09/12 06:45:24;;;;;;;0.30;0.30;;;12.50;99.90;;;;;;5009542;28;20129;-74
2022/09/12 06:47:50;;;;;;;0.20;0.20;;;12.40;99.90;;;;;;5010126;28;20181;-73
2022/09/12 06:50:16;;;;;;;0.60;0.60;;;12.40;99.90;;;;;;5009550;28;20056;-74
2022/09/12 06:52:43;;;;;;;0.30;0.30;;;12.40;99.90;;;;;;4995350;28;20493;-73
2022/09/12 06:55:09;;;;;;;0.32;0.32;;;12.30;99.90;;;;;;4989835;28;20023;-73
2022/09/12 06:57:37;;;;;;;0.35;0.35;;;12.30;99.90;;;;;;4991360;28;20114;-73
2022/09/12 07:00:04;;;;;;;0.30;0.30;;;12.30;99.90;;;;;;5009470;28;20305;-74
2022/09/12 07:02:30;;;;;;;;;;;12.30;99.90;;;;;;5008389;28;20030;-73
2022/09/12 07:04:55;;;;;;;0.30;0.30;;;12.30;99.90;;;;;;5008853;28;20440;-73
2022/09/12 07:07:21;;;;;;;0.40;0.40;;;13.00;99.90;;;;;;4997683;28;20042;-74
2022/09/12 07:09:48;;;;;;;0.30;0.30;;;12.30;99.90;;;;;;4988759;28;20411;-74
2022/09/12 07:12:14;;;;;;;2.72;0.73;;;12.30;99.90;;;;;;4989733;28;20087;-74
2022/09/12 07:14:39;;;;;;;0.40;0.40;;;12.30;99.90;;;;;;4990297;28;20034;-74
2022/09/12 07:17:05;;;;;;;0.37;0.37;;;12.30;99.90;;;;;;4989009;28;20022;-74
2022/09/12 07:19:31;;;;;;;0.40;0.40;;;12.30;99.90;;;;;;4989319;28;20466;-74
2022/09/12 07:21:57;;;;;;;0.60;0.60;;;12.40;99.90;;;;;;4993680;28;20108;-74
2022/09/12 07:24:23;;;;;;;0.70;0.70;;;12.40;99.90;;;;;;5007356;28;20125;-74
2022/09/12 07:26:48;;;;;;;0.30;0.30;;;12.40;99.90;;;;;;5008993;28;20481;-73
2022/09/12 07:29:15;;;;;;;0.70;0.70;;;12.50;99.90;;;;;;4998827;28;20037;-73
2022/09/12 07:31:42;;;;;;;0.93;0.93;;;12.80;99.90;;;;;;4989007;28;20500;-73
2022/09/12 07:34:07;;;;;;;0.32;0.32;;;12.50;99.90;;;;;;4996863;28;20030;-74
2022/09/12 07:36:33;;;;;;;0.30;0.30;;;12.60;99.90;;;;;;5006758;28;20037;-74
2022/09/12 07:38:59;;;;;;;0.47;0.47;;;12.80;99.90;;;;;;5006946;28;20397;-74
2022/09/12 07:41:30;;;;;;;0.47;0.47;;;13.00;99.90;;;;;;5008403;28;20137;-73
2022/09/12 07:43:57;;;;;;;0.63;0.63;;;13.40;99.90;;;;;;5001675;28;20061;-74
2022/09/12 07:46:25;;;;;;;0.30;0.30;;;13.60;99.90;;;;;;4991019;28;20366;-74
2022/09/12 07:48:56;;;;;;;0.80;0.80;;;13.70;99.90;;;;;;4987606;28;20470;-74
2022/09/12 07:51:23;;;;;;;0.20;0.20;;;13.80;99.90;;;;;;4988945;28;20037;-74
2022/09/12 07:53:49;;;;;;;;;;;13.80;99.90;;;;;;5006729;28;20049;-74
2022/09/12 07:56:15;;;;;;;0.30;0.30;;;14.00;99.90;;;;;;5008582;28;19936;-74
2022/09/12 07:58:42;;;;;;;0.30;0.30;;;14.00;99.90;;;;;;5005977;28;20058;-74
2022/09/12 08:01:13;;;;;;;0.35;0.35;;;14.10;99.90;;;;;;4987631;28;20030;-75
2022/09/12 08:03:40;;;;;;;0.52;0.43;;;14.10;99.90;;;;;;4987238;28;20418;-73
2022/09/12 08:06:10;;;;;;;0.30;0.30;;;14.10;99.90;;;;;;4988626;28;20405;-73
2022/09/12 08:08:37;;;;;;;0.30;0.30;;;14.10;99.90;;;;;;4989611;28;20035;-73
2022/09/12 08:11:06;;;;;;;0.40;0.40;;;14.00;99.90;;;;;;4970995;28;20026;-73
2022/09/12 08:13:34;;;;;;;0.35;0.35;;;13.90;99.90;;;;;;4988527;28;20499;-73
2022/09/12 08:16:03;;;;;;;0.30;0.30;;;13.80;99.90;;;;;;4990732;28;20066;-74
2022/09/12 08:18:31;;;;;;;0.40;0.40;;;13.90;99.90;;;;;;4969670;28;20042;-73
2022/09/12 08:21:03;;;;;;;0.40;0.40;;;14.00;99.90;;;;;;4986583;28;20054;-74
2022/09/12 08:23:29;;;;;;;0.40;0.40;;;14.20;99.90;;;;;;4988136;28;20034;-73
2022/09/12 08:26:01;;;;;;;0.40;0.40;;;14.40;99.90;;;;;;4987696;28;20142;-73
2022/09/12 08:28:28;;;;;;;0.45;0.45;;;14.30;99.90;;;;;;5000355;28;20053;-74
2022/09/12 08:30:59;;;;;;;0.35;0.35;;;14.20;99.90;;;;;;4991541;28;20062;-73
2022/09/12 08:33:30;;;;;;;0.30;0.30;;;14.30;99.90;;;;;;4988532;28;20098;-74
2022/09/12 08:36:11;;;;;;;0.30;0.30;;;14.30;99.90;;;;;;4988315;28;20026;-74
2022/09/12 08:38:39;;;;;;;0.30;0.30;;;14.20;99.90;;;;;;4995663;28;20041;-73
2022/09/12 08:41:30;;;;;;;0.60;0.60;;;14.40;99.90;;;;;;5008573;28;20042;-73
2022/09/12 08:44:17;;;;;;;0.50;0.50;;;14.40;99.90;;;;;;5007189;28;20049;-73
2022/09/12 08:46:59;;;;;;;0.93;0.93;;;14.30;99.90;;;;;;4968830;28;20027;-74
2022/09/12 08:49:40;;;;;;;0.40;0.40;;;14.30;99.90;;;;;;4968547;28;20043;-73
2022/09/12 08:52:17;;;;;;;0.30;0.30;;;14.30;99.90;;;;;;4968851;28;20373;-74
2022/09/12 08:54:46;;;;;;;0.57;0.57;;;14.30;99.90;;;;;;4969431;28;20126;-73
2022/09/12 08:57:14;;;;;;;1.00;0.82;;;14.30;99.90;;;;;;4969993;28;20107;-74
2022/09/12 08:59:44;;;;;;;0.50;0.50;;;14.30;99.90;;;;;;4970342;28;20023;-75
2022/09/12 09:02:37;;;;;;;0.30;0.30;;;14.40;99.90;;;;;;4988165;28;20370;-74
2022/09/12 09:05:28;;;;;;;0.50;0.50;;;14.40;99.90;;;;;;4987161;28;20035;-75
2022/09/12 09:08:35;;;;;;;0.30;0.30;;;14.40;99.90;;;;;;4968391;28;20039;-74
2022/09/12 09:11:04;;;;;;;0.50;0.50;;;14.40;99.90;;;;;;5066839;28;20032;-73
2022/09/12 09:16:49;;;;;;;0.63;0.63;;;14.50;99.90;;;;;;4974189;28;20437;-68
2022/09/12 09:19:24;;;;;;;0.30;0.30;;;14.60;99.90;;;;;;4972155;28;20030;-68
2022/09/12 09:22:01;;;;;;;0.25;0.25;;;14.70;99.90;;;;;;4977101;28;20037;-67
2022/09/12 09:24:33;;;;;;;2.22;1.70;;;14.70;99.90;;;;;;4983964;28;20133;-68
2022/09/12 09:27:28;;;;;;;0.30;0.30;;;14.60;99.90;;;;;;4981941;28;20050;-68
2022/09/12 09:29:55;;;;;;;0.50;0.50;;;14.60;99.90;;;;;;5008454;28;20497;-70
2022/09/12 09:32:39;;;;;;;0.30;0.30;;;14.60;99.90;;;;;;4979100;28;20063;-68
2022/09/12 09:35:20;;;;;;;1.02;0.90;;;14.70;99.90;;;;;;4977454;28;20289;-67
2022/09/12 09:38:22;;;;;;;0.30;0.30;;;14.80;99.90;;;;;;4981054;28;20038;-67
2022/09/12 09:41:09;;;;;;;0.30;0.30;;;14.60;99.90;;;;;;4977318;28;20026;-68
2022/09/12 09:43:37;;;;;;;0.30;0.30;;;14.50;99.90;;;;;;4975831;28;22083;-68
2022/09/12 09:46:03;;;;;;;0.32;0.32;;;14.50;99.90;;;;;;5008514;28;20033;-66
2022/09/12 09:48:37;;;;;;;0.50;0.50;;;14.40;99.90;;;;;;4976860;28;20618;-68
2022/09/12 09:51:06;;;;;;;0.40;0.40;;;14.40;99.90;;;;;;4978328;28;20034;-68
2022/09/12 09:53:41;;;;;;;0.30;0.30;;;14.50;99.90;;;;;;4974934;28;20409;-72
2022/09/12 09:56:19;;;;;;;0.30;0.30;;;14.50;99.90;;;;;;4982342;28;20127;-70
2022/09/12 09:58:44;;;;;;;0.40;0.40;;;14.60;99.90;;;;;;4985540;28;20027;-76
2022/09/12 10:01:15;;;;;;;0.57;0.57;;;14.60;99.90;;;;;;4995374;28;20038;-75
2022/09/12 10:03:46;;;;;;;0.30;0.30;;;14.50;99.90;;;;;;4973215;28;20517;-72
2022/09/12 10:06:18;;;;;;;0.52;0.52;;;14.60;99.90;;;;;;4974918;28;20355;-70
2022/09/12 10:08:44;;;;;;;0.30;0.30;;;14.50;99.90;;;;;;4978656;28;20110;-71
2022/09/12 10:11:21;;;;;;;0.30;0.30;;;14.50;99.90;;;;;;4984874;28;20594;-68
2022/09/12 10:13:51;;;;;;;0.40;0.40;;;14.40;99.90;;;;;;4971285;28;20161;-66
2022/09/12 10:16:28;;;;;;;0.35;0.35;;;14.40;99.90;;;;;;4978158;28;20034;-67
2022/09/12 10:18:56;;;;;;;0.60;0.60;;;14.40;99.90;;;;;;4971717;28;20126;-67
2022/09/12 10:21:33;;;;;;;0.50;0.50;;;14.30;99.90;;;;;;4978186;28;20049;-67
2022/09/12 10:24:25;;;;;;;0.45;0.45;;;14.30;99.90;;;;;;4979288;28;20482;-64
2022/09/12 10:27:11;;;;;;;0.30;0.30;;;14.30;99.90;;;;;;4977816;28;20042;-66
2022/09/12 10:29:50;;;;;;;0.60;0.60;;;14.30;99.90;;;;;;4977393;28;20458;-66
2022/09/12 10:32:37;;;;;;;0.43;0.43;;;14.30;99.90;;;;;;4974891;28;20054;-67
2022/09/12 10:35:15;;;;;;;2.03;1.88;;;14.30;99.90;;;;;;4987324;28;20034;-67
2022/09/12 10:38:05;;;;;;;0.40;0.40;;;14.20;99.90;;;;;;4983215;28;20089;-67
2022/09/12 10:40:38;;;;;;;0.30;0.30;;;14.30;99.90;;;;;;4981472;28;20041;-68
2022/09/12 10:43:26;;;;;;;1.02;0.73;;;14.30;99.90;;;;;;4974488;28;20030;-68
2022/09/12 10:45:56;;;;;;;0.30;0.30;;;14.20;99.90;;;;;;4976616;28;20043;-67
2022/09/12 10:48:31;;;;;;;0.40;0.40;;;14.10;99.90;;;;;;4977361;28;20039;-68
2022/09/12 10:50:58;;;;;;;0.55;0.55;;;14.00;99.90;;;;;;4973515;28;20383;-68
2022/09/12 10:53:31;;;;;;;0.95;0.90;;;13.90;99.90;;;;;;4998070;28;20026;-67
2022/09/12 10:56:31;;;;;;;0.30;0.30;;;13.80;99.90;;;;;;4977535;28;20027;-67
2022/09/12 10:59:33;;;;;;;0.30;0.30;;;13.70;99.90;;;;;;4989283;28;20051;-67
2022/09/12 11:02:40;;;;;;;0.50;0.50;;;13.60;99.90;;;;;;4975397;28;20062;-67
2022/09/12 11:05:42;;;;;;;0.30;0.30;;;13.60;99.90;;;;;;4977095;28;20168;-67
2022/09/12 11:08:14;;;;;;;0.93;0.93;;;13.50;99.90;;;;;;4983212;28;20031;-66
2022/09/12 11:11:10;;;;;;;14.35;2.05;;;13.40;99.90;;;;;;4981810;28;20038;-68
2022/09/12 11:14:08;;;;;;;0.30;0.30;;;13.40;99.90;;;;;;4988629;28;20656;-68
2022/09/12 11:16:47;;;;;;;0.30;0.30;;;13.30;99.90;;;;;;4986358;28;20077;-67
2022/09/12 11:19:31;;;;;;;0.40;0.40;;;13.40;99.90;;;;;;4986177;28;20529;-67
2022/09/12 11:22:15;;;;;;;0.30;0.30;;;13.40;99.90;;;;;;4978168;28;20056;-67
2022/09/12 11:24:50;;;;;;;0.40;0.40;;;13.30;99.90;;;;;;4984787;28;21917;-67
2022/09/12 11:27:34;;;;;;;0.30;0.30;;;13.40;99.90;;;;;;4987755;28;20036;-66
2022/09/12 11:30:09;;;;;;;0.40;0.40;;;13.40;99.90;;;;;;4985419;28;20034;-66
2022/09/12 11:32:50;;;;;;;0.30;0.30;;;13.40;99.90;;;;;;4983322;28;20493;-67
2022/09/12 11:35:28;;;;;;;0.30;0.30;;;13.40;99.90;;;;;;5007517;28;20039;-68
2022/09/12 11:38:12;;;;;;;;;;;13.40;99.90;;;;;;4983804;28;20057;-68
2022/09/12 11:40:47;;;;;;;0.30;0.30;;;13.40;99.90;;;;;;4977805;28;20012;-66
2022/09/12 11:43:40;;;;;;;0.30;0.30;;;13.40;99.90;;;;;;4986400;28;20039;-67
2022/09/12 11:46:12;;;;;;;0.40;0.40;;;13.40;99.90;;;;;;4984191;28;20631;-66
2022/09/12 11:48:47;;;;;;;0.82;0.82;;;13.40;99.90;;;;;;4979515;28;20034;-67
2022/09/12 11:51:36;;;;;;;0.30;0.30;;;13.50;99.90;;;;;;4979848;28;20527;-67
2022/09/12 11:54:35;;;;;;;0.30;0.30;;;13.40;99.90;;;;;;4985877;28;20693;-67
2022/09/12 11:57:19;;;;;;;0.30;0.30;;;13.40;99.90;;;;;;4993871;28;20391;-68
2022/09/12 11:59:56;;;;;;;0.40;0.40;;;13.30;99.90;;;;;;4987120;28;20520;-68
2022/09/12 12:02:29;;;;;;;0.70;0.70;;;13.30;99.90;;;;;;4977957;28;20105;-68
2022/09/12 12:05:14;;;;;;;0.30;0.30;;;13.40;99.90;;;;;;4979414;28;20100;-66
2022/09/12 12:07:51;;;;;;;0.50;0.50;;;13.40;99.90;;;;;;4979836;28;20039;-74
2022/09/12 12:10:36;;;;;;;0.30;0.30;;;13.40;99.90;;;;;;4987850;28;20030;-74
2022/09/12 12:13:27;;;;;;;0.55;0.55;;;13.50;99.90;;;;;;4988029;28;20092;-73
2022/09/12 12:15:57;;;;;;;0.30;0.30;;;13.50;99.90;;;;;;5035183;28;20086;-74
2022/09/12 12:18:26;;;;;;;0.30;0.30;;;13.50;99.90;;;;;;4992625;28;20049;-74
2022/09/12 12:20:53;;;;;;;0.57;0.57;;;13.50;99.90;;;;;;4987685;28;20038;-74
2022/09/12 12:23:32;;;;;;;0.43;0.43;;;13.40;99.90;;;;;;4986330;28;20068;-74
2022/09/12 12:26:00;;;;;;;0.38;0.38;;;13.50;99.90;;;;;;4985467;28;20034;-74
2022/09/12 12:28:41;;;;;;;0.30;0.30;;;13.70;99.90;;;;;;4987306;28;20485;-74
2022/09/12 12:31:09;;;;;;;0.70;0.70;;;13.60;99.90;;;;;;5003688;28;20079;-73
2022/09/12 12:33:37;;;;;;;0.43;0.43;;;13.60;99.90;;;;;;4982423;28;20034;-74
2022/09/12 12:36:07;;;;;;;0.30;0.30;;;13.60;99.90;;;;;;4967970;28;20033;-74
2022/09/12 12:38:35;;;;;;;0.43;0.43;;;13.60;99.90;;;;;;4985857;28;20394;-75
2022/09/12 12:41:16;;;;;;;0.35;0.35;;;13.60;99.90;;;;;;5006448;28;20068;-75
2022/09/12 12:43:52;;;;;;;1.13;1.00;;;13.60;99.90;;;;;;4971093;28;20055;-74
2022/09/12 12:46:21;;;;;;;1.00;1.00;;;13.60;99.90;;;;;;4969440;28;20478;-74
2022/09/12 12:49:07;;;;;;;0.30;0.30;;;13.60;99.90;;;;;;5005520;28;20102;-74
2022/09/12 12:51:42;;;;;;;0.30;0.30;;;13.50;99.90;;;;;;4985583;28;20047;-73
2022/09/12 12:54:26;;;;;;;0.40;0.40;;;13.60;99.90;;;;;;4968906;28;20023;-74
2022/09/12 12:57:02;;;;;;;0.52;0.52;;;13.60;99.90;;;;;;4969108;28;20027;-73
2022/09/12 12:59:28;;;;;;;0.32;0.32;;;13.60;99.90;;;;;;4986938;28;20104;-75
2022/09/12 13:01:56;;;;;;;0.40;0.40;;;13.60;99.90;;;;;;4977338;28;20039;-73
2022/09/12 13:04:29;;;;;;;0.30;0.30;;;13.70;99.90;;;;;;5006372;28;20065;-75
2022/09/12 13:07:05;;;;;;;0.30;0.30;;;13.80;99.90;;;;;;5007397;28;20036;-74
2022/09/12 13:09:42;;;;;;;0.93;0.93;;;13.70;99.90;;;;;;4992169;28;20035;-73
2022/09/12 13:12:24;;;;;;;0.30;0.30;;;13.70;99.90;;;;;;4983325;28;20578;-74
2022/09/12 13:15:01;;;;;;;0.30;0.30;;;13.50;99.90;;;;;;4966881;28;20051;-73
2022/09/12 13:17:45;;;;;;;0.35;0.35;;;13.40;99.90;;;;;;4972939;28;20022;-74
2022/09/12 13:20:48;;;;;;;0.32;0.32;;;13.40;99.90;;;;;;4971097;28;20039;-74